Time;durP1;ratioP1;P1;durP2;ratioP2;P2;SDS_P1;SDS_P2;PMS_P1;PMS_P2;Temp;Humidity;BMP_temperature;BMP_pressure;BME280_temperature;BME280_humidity;BME280_pressure;Samples;Min_cycle;Max_cycle;Signal;HPM_P1;HPM_P2
2022/09/22 00:01:55;;;;;;;5.50;2.03;;;14.40;99.90;;;;;;5037085;28;20068;-90
2022/09/22 00:04:20;;;;;;;5.03;2.60;;;14.50;99.90;;;;;;5037280;28;20112;-90
2022/09/22 00:06:50;;;;;;;3.72;2.30;;;14.50;99.90;;;;;;5037031;28;20029;-90
2022/09/22 00:09:17;;;;;;;2.63;1.73;;;14.50;99.90;;;;;;5036988;28;20021;-90
2022/09/22 00:11:46;;;;;;;4.72;1.90;;;14.40;99.90;;;;;;5036936;28;20489;-90
2022/09/22 00:14:24;;;;;;;5.57;2.53;;;14.50;99.90;;;;;;5036789;28;20056;-91
2022/09/22 00:16:56;;;;;;;3.17;2.13;;;14.50;99.90;;;;;;5036990;28;20025;-90
2022/09/22 00:19:30;;;;;;;3.95;1.80;;;14.50;99.90;;;;;;5054126;28;20025;-90
2022/09/22 00:21:56;;;;;;;4.75;2.38;;;14.50;99.90;;;;;;5036668;28;20025;-91
2022/09/22 00:24:22;;;;;;;3.20;2.33;;;14.50;99.90;;;;;;5030537;28;20538;-90
2022/09/22 00:26:50;;;;;;;5.22;2.47;;;14.50;99.90;;;;;;5053853;28;20152;-90
2022/09/22 00:29:16;;;;;;;8.00;2.35;;;14.50;99.90;;;;;;5035926;28;20300;-91
2022/09/22 00:31:43;;;;;;;4.00;2.20;;;14.40;99.90;;;;;;5017528;28;20382;-90
2022/09/22 00:34:18;;;;;;;6.43;2.20;;;14.40;99.90;;;;;;5053820;28;20607;-90
2022/09/22 00:36:44;;;;;;;2.22;1.80;;;14.30;99.90;;;;;;5035785;28;20041;-90
2022/09/22 00:39:11;;;;;;;3.30;2.10;;;14.30;99.90;;;;;;5035575;28;20036;-90
2022/09/22 00:41:40;;;;;;;4.57;2.40;;;14.30;99.90;;;;;;5035498;28;20044;-90
2022/09/22 00:44:30;;;;;;;2.47;2.10;;;14.30;99.90;;;;;;5035657;28;20025;-91
2022/09/22 00:47:01;;;;;;;3.80;2.20;;;14.30;99.90;;;;;;5053708;28;20017;-91
2022/09/22 00:49:37;;;;;;;3.30;2.00;;;14.40;99.90;;;;;;5035693;28;20059;-91
2022/09/22 00:52:04;;;;;;;6.97;2.35;;;14.30;99.90;;;;;;5035381;28;20021;-91
2022/09/22 00:54:30;;;;;;;5.40;2.20;;;14.30;99.90;;;;;;5035218;28;20040;-90
2022/09/22 00:57:04;;;;;;;2.53;1.80;;;14.30;99.90;;;;;;5053366;28;20540;-90
2022/09/22 00:59:29;;;;;;;3.03;1.95;;;14.30;99.90;;;;;;5035247;28;20462;-90
2022/09/22 01:01:55;;;;;;;2.55;2.05;;;14.30;99.90;;;;;;5035456;28;20120;-91
2022/09/22 01:04:22;;;;;;;3.60;2.22;;;14.30;99.90;;;;;;5035214;28;20037;-91
2022/09/22 01:06:49;;;;;;;4.10;2.42;;;14.30;99.90;;;;;;5034550;28;20079;-90
2022/09/22 01:09:15;;;;;;;3.67;2.08;;;14.30;99.90;;;;;;5053239;28;20033;-91
2022/09/22 01:11:42;;;;;;;3.90;2.35;;;14.30;99.90;;;;;;5035132;28;20057;-91
2022/09/22 01:14:40;;;;;;;8.07;2.30;;;14.20;99.90;;;;;;5052730;28;20037;-90
2022/09/22 01:17:30;;;;;;;7.30;1.90;;;14.20;99.90;;;;;;5035012;28;20025;-90
2022/09/22 01:20:39;;;;;;;4.95;2.17;;;14.30;99.90;;;;;;5034990;28;20028;-91
2022/09/22 01:23:29;;;;;;;4.22;2.00;;;14.30;99.90;;;;;;5007296;28;20029;-91
2022/09/22 01:26:40;;;;;;;3.67;2.28;;;14.40;99.90;;;;;;5034914;28;20481;-91
2022/09/22 01:29:11;;;;;;;4.30;2.78;;;14.40;99.90;;;;;;5052912;28;20465;-91
2022/09/22 01:32:16;;;;;;;4.47;2.40;;;14.40;99.90;;;;;;5034474;28;20028;-90
2022/09/22 01:34:55;;;;;;;5.18;2.00;;;14.40;99.90;;;;;;5034808;28;20024;-91
2022/09/22 01:37:34;;;;;;;2.80;1.70;;;14.30;99.90;;;;;;5034583;28;20060;-91
2022/09/22 01:40:16;;;;;;;5.05;1.83;;;14.30;99.90;;;;;;5051277;28;20029;-91
2022/09/22 01:42:59;;;;;;;6.32;2.05;;;14.30;99.90;;;;;;5034367;28;20044;-90
2022/09/22 01:45:31;;;;;;;4.47;1.88;;;14.30;99.90;;;;;;5051333;28;20029;-90
2022/09/22 01:48:04;;;;;;;4.32;2.33;;;14.30;99.90;;;;;;5052582;28;20033;-90
2022/09/22 01:50:38;;;;;;;3.83;2.17;;;14.30;99.90;;;;;;5034367;28;20472;-91
2022/09/22 01:53:13;;;;;;;3.83;2.33;;;14.30;99.90;;;;;;5052497;28;20307;-90
2022/09/22 01:55:43;;;;;;;2.53;1.85;;;14.30;99.90;;;;;;5052472;28;20557;-90
2022/09/22 01:58:19;;;;;;;7.45;1.85;;;14.30;99.90;;;;;;5034056;28;20389;-90
2022/09/22 02:00:59;;;;;;;6.85;2.22;;;14.20;99.90;;;;;;5034163;28;20112;-90
2022/09/22 02:03:40;;;;;;;3.90;1.98;;;14.30;99.90;;;;;;5034428;28;20083;-91
2022/09/22 02:06:25;;;;;;;3.05;1.92;;;14.30;99.90;;;;;;5033804;28;20021;-91
2022/09/22 02:08:50;;;;;;;4.07;2.22;;;14.20;99.90;;;;;;5034046;28;20525;-91
2022/09/22 02:11:16;;;;;;;3.85;2.38;;;14.20;99.90;;;;;;5033883;28;20027;-91
2022/09/22 02:13:46;;;;;;;3.03;2.13;;;14.20;99.90;;;;;;5051910;28;20098;-90
2022/09/22 02:16:14;;;;;;;3.65;1.70;;;14.20;99.90;;;;;;5033661;28;20021;-91
2022/09/22 02:19:17;;;;;;;3.05;2.13;;;14.20;99.90;;;;;;5050611;28;20453;-91
2022/09/22 02:21:44;;;;;;;3.53;2.10;;;14.20;99.90;;;;;;5002653;28;20055;-91
2022/09/22 02:24:30;;;;;;;3.22;1.95;;;14.20;99.90;;;;;;5034124;28;20504;-91
2022/09/22 02:26:58;;;;;;;3.25;1.92;;;14.20;99.90;;;;;;5051529;28;20028;-91
2022/09/22 02:29:28;;;;;;;3.97;2.15;;;14.20;99.90;;;;;;5033668;28;20040;-91
2022/09/22 02:31:55;;;;;;;3.30;2.03;;;14.10;99.90;;;;;;5014922;28;20045;-90
2022/09/22 02:34:21;;;;;;;4.63;2.40;;;14.10;99.90;;;;;;5032932;28;20067;-91
2022/09/22 02:36:50;;;;;;;2.35;1.60;;;14.10;99.90;;;;;;5044375;23;20495;-79
2022/09/22 02:39:39;;;;;;;2.38;1.70;;;14.10;99.90;;;;;;5068328;28;20024;-78
2022/09/22 02:42:26;;;;;;;3.47;1.50;;;14.20;99.90;;;;;;5028948;28;20122;-78
2022/09/22 02:45:20;;;;;;;6.20;1.80;;;14.20;99.90;;;;;;5073637;28;20027;-78
2022/09/22 02:48:04;;;;;;;4.57;2.30;;;14.10;99.90;;;;;;5051311;28;20032;-78
2022/09/22 02:50:31;;;;;;;3.83;1.92;;;14.10;99.90;;;;;;5055972;28;20443;-78
2022/09/22 02:53:02;;;;;;;3.05;1.70;;;14.10;99.90;;;;;;5056543;28;20025;-79
2022/09/22 02:55:28;;;;;;;3.08;1.85;;;14.10;99.90;;;;;;5069261;28;20025;-79
2022/09/22 02:57:54;;;;;;;2.85;1.70;;;14.10;99.90;;;;;;5050182;28;20029;-78
2022/09/22 03:00:20;;;;;;;3.38;1.80;;;14.10;99.90;;;;;;5050848;28;20028;-77
2022/09/22 03:02:46;;;;;;;3.78;1.90;;;14.00;99.90;;;;;;5053721;28;20142;-78
2022/09/22 03:05:12;;;;;;;3.22;2.00;;;14.00;99.90;;;;;;5070006;28;20060;-79
2022/09/22 03:07:38;;;;;;;3.25;2.15;;;14.00;99.90;;;;;;5056205;28;20570;-78
2022/09/22 03:10:04;;;;;;;2.80;1.83;;;14.10;99.90;;;;;;5052746;28;20039;-78
2022/09/22 03:12:30;;;;;;;2.50;1.83;;;14.10;99.90;;;;;;5051953;28;20128;-79
2022/09/22 03:14:56;;;;;;;2.13;1.60;;;14.00;99.90;;;;;;5060283;28;20054;-80
2022/09/22 03:17:22;;;;;;;6.93;2.40;;;14.00;99.90;;;;;;5051995;28;20468;-80
2022/09/22 03:19:47;;;;;;;5.53;1.85;;;14.00;99.90;;;;;;5053423;28;20031;-80
2022/09/22 03:22:13;;;;;;;3.42;1.92;;;14.00;99.90;;;;;;5051218;28;20039;-78
2022/09/22 03:24:39;;;;;;;2.42;1.90;;;14.00;99.90;;;;;;5052767;28;20031;-79
2022/09/22 03:27:04;;;;;;;4.43;1.90;;;14.00;99.90;;;;;;5054256;28;20029;-78
2022/09/22 03:29:30;;;;;;;3.08;2.00;;;14.10;99.90;;;;;;5058671;28;20082;-78
2022/09/22 03:31:56;;;;;;;4.18;1.90;;;14.10;99.90;;;;;;5051292;28;20032;-78
2022/09/22 03:34:22;;;;;;;1.90;1.60;;;14.10;99.90;;;;;;5071229;28;20024;-79
2022/09/22 03:36:47;;;;;;;2.47;1.73;;;14.10;99.90;;;;;;5080504;28;20020;-78
2022/09/22 03:39:13;;;;;;;5.07;2.25;;;14.10;99.90;;;;;;5051214;28;20037;-78
2022/09/22 03:41:39;;;;;;;3.75;1.48;;;14.10;99.90;;;;;;5070732;28;20148;-78
2022/09/22 03:44:06;;;;;;;5.00;1.65;;;14.10;99.90;;;;;;5053492;28;20033;-78
2022/09/22 03:46:33;;;;;;;2.70;2.10;;;14.10;99.90;;;;;;5055442;28;20472;-78
2022/09/22 03:48:59;;;;;;;5.55;1.70;;;14.10;99.90;;;;;;5070624;28;20487;-78
2022/09/22 03:51:24;;;;;;;3.67;1.83;;;14.00;99.90;;;;;;5052626;28;20071;-79
2022/09/22 03:53:50;;;;;;;2.28;1.70;;;14.00;99.90;;;;;;5051257;28;20024;-78
2022/09/22 03:56:16;;;;;;;3.40;2.08;;;14.00;99.90;;;;;;5051023;28;20549;-78
2022/09/22 03:58:42;;;;;;;4.28;1.95;;;14.00;99.90;;;;;;5051587;28;20020;-77
2022/09/22 04:01:10;;;;;;;4.03;1.77;;;14.00;99.90;;;;;;5052437;28;20028;-76
2022/09/22 04:03:36;;;;;;;2.28;1.50;;;14.00;99.90;;;;;;5052975;28;20083;-77
2022/09/22 04:06:02;;;;;;;3.70;1.63;;;14.00;99.90;;;;;;5052097;28;20373;-78
2022/09/22 04:08:28;;;;;;;3.22;1.75;;;14.00;99.90;;;;;;5052622;28;20039;-79
2022/09/22 04:10:56;;;;;;;2.90;1.60;;;14.00;99.90;;;;;;5053444;28;20040;-79
2022/09/22 04:13:22;;;;;;;2.58;1.80;;;14.00;99.90;;;;;;5058752;28;20033;-78
2022/09/22 04:15:48;;;;;;;3.33;2.15;;;13.90;99.90;;;;;;5074748;28;20017;-79
2022/09/22 04:18:14;;;;;;;1.77;1.45;;;13.90;99.90;;;;;;5052812;28;20029;-78
2022/09/22 04:20:42;;;;;;;2.20;1.73;;;14.00;99.90;;;;;;5050449;28;20032;-79
2022/09/22 04:23:08;;;;;;;3.28;1.55;;;13.90;99.90;;;;;;5052484;28;20102;-79
2022/09/22 04:25:34;;;;;;;2.70;1.92;;;14.00;99.90;;;;;;5057008;28;20024;-79
2022/09/22 04:28:00;;;;;;;2.97;1.50;;;13.90;99.90;;;;;;5064570;28;20489;-77
2022/09/22 04:30:26;;;;;;;1.85;1.27;;;13.90;99.90;;;;;;5069031;28;20040;-78
2022/09/22 04:32:52;;;;;;;3.08;1.67;;;13.80;99.90;;;;;;5055366;28;20580;-78
2022/09/22 04:35:17;;;;;;;2.97;1.92;;;13.80;99.90;;;;;;5074330;28;20031;-78
2022/09/22 04:37:43;;;;;;;1.80;1.50;;;13.80;99.90;;;;;;5084345;28;20381;-79
2022/09/22 04:40:12;;;;;;;2.10;1.40;;;13.80;99.90;;;;;;5066866;28;20536;-79
2022/09/22 04:42:38;;;;;;;2.20;1.63;;;13.70;99.90;;;;;;5056837;28;20028;-79
2022/09/22 04:45:05;;;;;;;2.17;1.73;;;13.70;99.90;;;;;;5056865;28;20035;-79
2022/09/22 04:47:32;;;;;;;2.78;1.50;;;13.70;99.90;;;;;;5059489;28;20025;-78
2022/09/22 04:49:58;;;;;;;3.90;1.80;;;13.70;99.90;;;;;;5080185;28;20558;-79
2022/09/22 04:52:25;;;;;;;3.35;2.05;;;13.70;99.90;;;;;;5062409;28;20033;-79
2022/09/22 04:54:51;;;;;;;2.50;1.95;;;13.70;99.90;;;;;;5057161;28;20069;-77
2022/09/22 04:57:17;;;;;;;2.20;1.55;;;13.60;99.90;;;;;;5057236;28;20028;-77
2022/09/22 04:59:42;;;;;;;2.67;1.65;;;13.60;99.90;;;;;;5054855;28;20017;-77
2022/09/22 05:02:08;;;;;;;2.65;1.95;;;13.60;99.90;;;;;;5054581;28;20039;-78
2022/09/22 05:04:34;;;;;;;3.22;1.70;;;13.60;99.90;;;;;;5055502;28;20032;-78
2022/09/22 05:07:00;;;;;;;3.58;1.80;;;13.60;99.90;;;;;;5074347;28;20035;-78
2022/09/22 05:09:27;;;;;;;2.00;1.60;;;13.60;99.90;;;;;;5060263;28;20395;-78
2022/09/22 05:11:53;;;;;;;3.90;1.63;;;13.60;99.90;;;;;;5060413;28;20131;-79
2022/09/22 05:14:19;;;;;;;3.55;1.67;;;13.60;99.90;;;;;;5058256;28;20024;-79
2022/09/22 05:16:44;;;;;;;2.38;1.45;;;13.60;99.90;;;;;;5057457;28;20063;-78
2022/09/22 05:19:10;;;;;;;8.32;1.95;;;13.60;99.90;;;;;;5058386;28;20500;-80
2022/09/22 05:21:36;;;;;;;3.88;1.70;;;13.60;99.90;;;;;;5054772;28;20094;-78
2022/09/22 05:24:03;;;;;;;3.58;1.77;;;13.60;99.90;;;;;;5056760;28;20029;-78
2022/09/22 05:26:29;;;;;;;3.33;1.80;;;13.60;99.90;;;;;;5056300;28;20512;-79
2022/09/22 05:28:56;;;;;;;2.78;1.38;;;13.60;99.90;;;;;;5061417;28;20519;-78
2022/09/22 05:31:22;;;;;;;2.58;1.13;;;13.60;99.90;;;;;;5072924;28;20036;-78
2022/09/22 05:33:48;;;;;;;1.50;1.17;;;13.60;99.90;;;;;;5069568;28;20074;-78
2022/09/22 05:36:14;;;;;;;2.33;1.45;;;13.70;99.90;;;;;;5055212;28;20032;-78
2022/09/22 05:38:40;;;;;;;1.65;1.30;;;13.70;99.90;;;;;;5073164;28;20028;-78
2022/09/22 05:41:06;;;;;;;3.50;2.00;;;13.70;99.90;;;;;;5047614;28;20044;-79
2022/09/22 05:43:32;;;;;;;2.25;1.42;;;13.70;99.90;;;;;;5054517;28;20469;-76
2022/09/22 05:45:57;;;;;;;3.47;1.85;;;13.60;99.90;;;;;;5059419;28;20032;-78
2022/09/22 05:48:23;;;;;;;4.63;1.30;;;13.60;99.90;;;;;;5062577;28;20021;-77
2022/09/22 05:50:49;;;;;;;1.95;1.48;;;13.60;99.90;;;;;;5046648;28;20393;-77
2022/09/22 05:53:15;;;;;;;2.47;1.48;;;13.60;99.90;;;;;;5065969;28;20076;-78
2022/09/22 05:55:41;;;;;;;3.40;1.75;;;13.70;99.90;;;;;;5053104;28;20586;-77
2022/09/22 05:58:13;;;;;;;4.28;1.90;;;13.70;99.90;;;;;;5072902;28;20017;-78
2022/09/22 06:00:39;;;;;;;2.90;1.35;;;13.70;99.90;;;;;;5053479;28;20024;-78
2022/09/22 06:03:05;;;;;;;2.42;1.75;;;13.70;99.90;;;;;;5051385;28;20052;-78
2022/09/22 06:05:31;;;;;;;4.90;2.00;;;13.70;99.90;;;;;;5051401;28;20039;-78
2022/09/22 06:08:02;;;;;;;3.33;1.77;;;13.80;99.90;;;;;;5052161;28;20024;-80
2022/09/22 06:10:31;;;;;;;3.80;1.80;;;13.80;99.90;;;;;;5054402;28;20484;-79
2022/09/22 06:12:58;;;;;;;2.28;1.75;;;13.80;99.90;;;;;;5071448;28;20508;-79
2022/09/22 06:15:24;;;;;;;3.53;1.95;;;13.70;99.90;;;;;;5073053;28;20556;-79
2022/09/22 06:17:51;;;;;;;4.43;1.73;;;13.70;99.90;;;;;;5054152;28;20530;-79
2022/09/22 06:20:17;;;;;;;2.83;1.80;;;13.70;99.90;;;;;;5073289;28;20017;-79
2022/09/22 06:22:43;;;;;;;2.95;1.50;;;13.70;99.90;;;;;;5055085;28;20460;-79
2022/09/22 06:25:10;;;;;;;4.53;2.10;;;13.70;99.90;;;;;;5081064;28;20021;-77
2022/09/22 06:27:36;;;;;;;4.55;1.90;;;13.60;99.90;;;;;;5070777;28;20036;-77
2022/09/22 06:30:02;;;;;;;4.93;1.77;;;13.60;99.90;;;;;;5053055;28;20488;-76
2022/09/22 06:32:28;;;;;;;2.33;1.80;;;13.60;99.90;;;;;;5044965;28;20413;-76
2022/09/22 06:34:54;;;;;;;2.95;1.60;;;13.60;99.90;;;;;;5081182;28;20429;-77
2022/09/22 06:37:21;;;;;;;2.47;1.55;;;13.50;99.90;;;;;;5073572;28;20036;-77
2022/09/22 06:39:46;;;;;;;4.43;2.05;;;13.50;99.90;;;;;;5070997;28;20024;-76
2022/09/22 06:42:16;;;;;;;3.08;1.58;;;13.50;99.90;;;;;;5072622;28;20066;-77
2022/09/22 06:44:43;;;;;;;3.30;1.70;;;13.40;99.90;;;;;;5035580;28;20494;-78
2022/09/22 06:47:10;;;;;;;4.90;1.60;;;13.40;99.90;;;;;;5053663;28;20112;-77
2022/09/22 06:49:36;;;;;;;2.83;1.77;;;13.40;99.90;;;;;;5052615;28;20036;-78
2022/09/22 06:52:01;;;;;;;5.55;2.58;;;13.40;99.90;;;;;;5053774;28;20025;-77
2022/09/22 06:54:27;;;;;;;4.30;1.83;;;13.40;99.90;;;;;;5046160;28;20033;-78
2022/09/22 06:56:54;;;;;;;3.45;1.98;;;13.30;99.90;;;;;;5052380;28;20017;-78
2022/09/22 06:59:20;;;;;;;2.10;1.70;;;13.30;99.90;;;;;;5050469;28;20029;-78
2022/09/22 07:01:46;;;;;;;2.75;1.65;;;13.30;99.90;;;;;;5053454;28;20034;-78
2022/09/22 07:04:11;;;;;;;3.88;1.83;;;13.30;99.90;;;;;;5074482;28;20020;-78
2022/09/22 07:06:39;;;;;;;2.08;1.52;;;13.30;99.90;;;;;;5063925;28;20051;-78
2022/09/22 07:09:06;;;;;;;4.63;1.63;;;13.40;99.90;;;;;;5054854;28;20451;-78
2022/09/22 07:11:32;;;;;;;2.10;1.45;;;13.40;99.90;;;;;;5054141;28;20527;-77
2022/09/22 07:13:58;;;;;;;2.50;1.58;;;13.40;99.90;;;;;;5053439;28;20031;-78
2022/09/22 07:16:25;;;;;;;2.63;1.85;;;13.40;99.90;;;;;;5072980;28;20024;-78
2022/09/22 07:18:57;;;;;;;3.22;1.83;;;13.40;99.90;;;;;;5071586;28;20089;-78
2022/09/22 07:21:30;;;;;;;2.05;1.60;;;13.40;99.90;;;;;;5068789;28;21368;-78
2022/09/22 07:23:57;;;;;;;2.40;1.60;;;13.40;99.90;;;;;;5051363;28;20059;-78
2022/09/22 07:26:26;;;;;;;3.30;2.00;;;13.40;99.90;;;;;;5053802;28;20556;-78
2022/09/22 07:28:53;;;;;;;3.50;1.65;;;13.40;99.90;;;;;;5053801;28;20021;-78
2022/09/22 07:31:20;;;;;;;3.10;1.80;;;13.40;99.90;;;;;;5053790;28;20032;-78
2022/09/22 07:33:46;;;;;;;3.05;1.63;;;13.40;99.90;;;;;;5047468;28;20041;-78
2022/09/22 07:36:17;;;;;;;2.53;1.85;;;13.40;99.90;;;;;;5062850;28;20163;-77
2022/09/22 07:38:47;;;;;;;2.25;1.35;;;13.40;99.90;;;;;;5081443;28;20081;-78
2022/09/22 07:41:19;;;;;;;5.70;2.13;;;13.40;99.90;;;;;;5053962;28;20025;-77
2022/09/22 07:43:48;;;;;;;2.63;1.70;;;13.40;99.90;;;;;;5054291;28;20039;-77
2022/09/22 07:46:14;;;;;;;2.70;1.50;;;13.40;99.90;;;;;;5054598;28;20024;-78
2022/09/22 07:51:09;;;;;;;3.92;1.73;;;13.40;99.90;;;;;;5068479;28;20029;-77
2022/09/22 07:53:36;;;;;;;2.72;1.60;;;13.40;99.90;;;;;;5050111;28;20039;-77
2022/09/22 07:56:05;;;;;;;2.53;1.83;;;13.40;99.90;;;;;;5066399;28;20020;-77
2022/09/22 07:58:31;;;;;;;2.65;1.58;;;13.40;99.90;;;;;;5066904;28;20038;-77
2022/09/22 08:00:58;;;;;;;3.67;1.73;;;13.40;99.90;;;;;;5050063;28;20074;-77
2022/09/22 08:03:24;;;;;;;2.67;1.55;;;13.40;99.90;;;;;;5066158;28;20523;-77
2022/09/22 08:05:52;;;;;;;3.67;1.98;;;13.40;99.90;;;;;;5048859;28;20025;-77
2022/09/22 08:08:18;;;;;;;3.25;1.90;;;13.40;99.90;;;;;;5049976;28;20373;-78
2022/09/22 08:10:44;;;;;;;5.93;1.42;;;13.40;99.90;;;;;;5050965;28;20412;-78
2022/09/22 08:13:10;;;;;;;3.78;1.55;;;13.40;99.90;;;;;;5050613;28;20493;-77
2022/09/22 08:15:38;;;;;;;3.25;1.77;;;13.40;99.90;;;;;;5054696;28;20446;-77
2022/09/22 08:18:05;;;;;;;3.38;1.83;;;13.40;99.90;;;;;;5053403;28;20025;-78
2022/09/22 08:20:31;;;;;;;2.08;1.60;;;13.40;99.90;;;;;;5057185;28;20036;-77
2022/09/22 08:23:05;;;;;;;4.10;1.55;;;13.40;99.90;;;;;;5056135;28;20082;-77
2022/09/22 08:25:30;;;;;;;;;;;13.40;99.90;;;;;;5074890;28;20028;-77
2022/09/22 08:27:56;;;;;;;3.35;1.70;;;13.40;99.90;;;;;;5054623;28;19961;-77
2022/09/22 08:30:22;;;;;;;2.55;1.40;;;13.40;99.90;;;;;;5056002;28;20082;-77
2022/09/22 08:32:47;;;;;;;7.32;2.47;;;13.40;99.90;;;;;;5081036;28;20056;-77
2022/09/22 08:35:13;;;;;;;3.70;1.90;;;13.40;99.90;;;;;;5073956;28;20032;-78
2022/09/22 08:37:41;;;;;;;3.38;1.77;;;13.40;99.90;;;;;;5055941;28;20024;-78
2022/09/22 08:40:16;;;;;;;3.03;1.60;;;13.40;99.90;;;;;;5055844;28;20419;-78
2022/09/22 08:42:44;;;;;;;4.07;1.83;;;13.40;99.90;;;;;;5052178;28;20119;-78
2022/09/22 08:45:39;;;;;;;3.05;2.15;;;13.40;99.90;;;;;;5059083;28;20028;-78
2022/09/22 08:53:55;;;;;;;3.38;2.40;;;13.40;99.90;;;;;;5079295;28;20047;-78
2022/09/22 08:56:42;;;;;;;3.92;1.92;;;13.40;99.90;;;;;;5059500;28;20041;-78
2022/09/22 08:59:29;;;;;;;3.25;1.58;;;13.40;99.90;;;;;;5082500;28;20024;-77
2022/09/22 09:02:12;;;;;;;9.60;1.75;;;13.40;99.90;;;;;;5071166;28;20234;-78
2022/09/22 09:05:23;;;;;;;2.45;1.70;;;13.40;99.90;;;;;;5055560;28;20020;-78
2022/09/22 09:08:30;;;;;;;2.13;1.65;;;13.40;99.90;;;;;;5037958;28;20397;-77
2022/09/22 09:11:08;;;;;;;4.57;1.88;;;13.40;99.90;;;;;;5068912;22;20037;-86
2022/09/22 09:13:48;;;;;;;6.78;2.53;;;13.40;99.90;;;;;;5039794;28;20049;-86
2022/09/22 09:16:32;;;;;;;2.42;1.73;;;13.40;99.90;;;;;;5048415;28;20540;-86
2022/09/22 09:19:33;;;;;;;3.75;1.88;;;13.40;99.90;;;;;;5064883;28;20028;-86
2022/09/22 09:22:06;;;;;;;5.32;2.10;;;13.40;99.90;;;;;;5052385;28;20029;-86
2022/09/22 09:24:38;;;;;;;4.60;2.03;;;13.40;99.90;;;;;;5067658;28;20021;-86
2022/09/22 09:27:11;;;;;;;2.65;1.85;;;13.40;99.90;;;;;;5066041;28;20036;-86
2022/09/22 09:29:54;;;;;;;3.42;1.98;;;13.40;99.90;;;;;;5054302;28;20129;-86
2022/09/22 09:32:32;;;;;;;2.90;1.85;;;13.50;99.90;;;;;;5060239;28;20029;-86
2022/09/22 09:35:03;;;;;;;2.83;1.80;;;13.50;99.90;;;;;;5049928;28;20024;-86
2022/09/22 09:37:30;;;;;;;3.20;1.42;;;13.50;99.90;;;;;;5064708;28;20082;-86
2022/09/22 09:40:00;;;;;;;2.25;1.83;;;13.50;99.90;;;;;;5047905;28;20020;-86
2022/09/22 09:42:34;;;;;;;2.75;1.92;;;13.50;99.90;;;;;;5059984;28;20041;-86
2022/09/22 09:45:01;;;;;;;3.45;1.90;;;13.50;99.90;;;;;;5058074;28;20021;-86
2022/09/22 09:47:46;;;;;;;3.08;1.90;;;13.50;99.90;;;;;;5057905;28;20119;-86
2022/09/22 09:50:13;;;;;;;3.22;1.85;;;13.50;99.90;;;;;;5069817;28;20408;-87
2022/09/22 09:52:39;;;;;;;2.10;1.30;;;13.50;99.90;;;;;;5052802;28;20025;-88
2022/09/22 09:55:19;;;;;;;1.35;1.20;;;13.50;99.90;;;;;;5050117;28;20166;-87
2022/09/22 09:58:02;;;;;;;2.40;1.67;;;13.50;99.90;;;;;;5063933;28;20013;-87
2022/09/22 10:00:31;;;;;;;2.70;1.67;;;13.50;99.90;;;;;;5068566;28;20028;-87
2022/09/22 10:03:19;;;;;;;3.03;1.48;;;13.50;99.90;;;;;;5071251;28;20103;-87
2022/09/22 10:05:59;;;;;;;2.45;1.80;;;13.50;99.90;;;;;;5058117;28;20408;-87
2022/09/22 10:08:26;;;;;;;2.83;1.80;;;13.50;99.90;;;;;;5069514;28;20056;-87
2022/09/22 10:10:57;;;;;;;3.00;1.80;;;13.50;99.90;;;;;;5033141;28;20041;-86
2022/09/22 10:13:38;;;;;;;2.78;1.90;;;13.50;99.90;;;;;;5049501;28;20082;-87
2022/09/22 10:16:22;;;;;;;2.35;1.73;;;13.50;99.90;;;;;;5046264;28;20028;-87
2022/09/22 10:19:21;;;;;;;2.72;1.80;;;13.50;99.90;;;;;;5058559;28;20028;-88
2022/09/22 10:21:47;;;;;;;2.25;1.60;;;13.50;99.90;;;;;;5049195;28;20074;-86
2022/09/22 10:24:31;;;;;;;3.17;2.03;;;13.50;99.90;;;;;;5069236;28;20074;-87
2022/09/22 10:26:58;;;;;;;2.72;1.75;;;13.50;99.90;;;;;;5068340;28;20100;-88
2022/09/22 10:29:24;;;;;;;2.55;1.60;;;13.50;99.90;;;;;;5068065;28;20039;-87
2022/09/22 10:32:14;;;;;;;2.00;1.80;;;13.50;99.90;;;;;;5051631;28;20056;-86
2022/09/22 10:34:46;;;;;;;2.13;1.45;;;13.50;99.90;;;;;;5038100;28;20052;-88
2022/09/22 10:37:15;;;;;;;3.42;2.05;;;13.50;99.90;;;;;;5065145;28;20107;-87
2022/09/22 10:40:00;;;;;;;2.50;1.50;;;13.50;99.90;;;;;;5051256;28;20025;-86
2022/09/22 10:42:32;;;;;;;3.90;2.08;;;13.60;99.90;;;;;;5066494;28;20032;-88
2022/09/22 10:45:02;;;;;;;2.67;2.17;;;13.60;99.90;;;;;;5065770;28;20021;-87
2022/09/22 10:47:40;;;;;;;3.85;2.40;;;13.60;99.90;;;;;;5064926;28;20036;-88
2022/09/22 10:50:28;;;;;;;2.58;1.77;;;13.60;99.90;;;;;;5059598;28;20029;-86
2022/09/22 10:52:59;;;;;;;2.38;2.03;;;13.60;99.90;;;;;;5059521;28;20082;-86
2022/09/22 10:55:31;;;;;;;2.58;2.13;;;13.60;99.90;;;;;;5064675;28;20070;-88
2022/09/22 10:57:57;;;;;;;2.75;1.88;;;13.60;99.90;;;;;;5062314;28;20500;-88
2022/09/22 11:00:24;;;;;;;2.10;1.90;;;13.60;99.90;;;;;;5064473;28;20159;-86
2022/09/22 11:03:05;;;;;;;2.22;1.75;;;13.60;99.90;;;;;;5057127;28;20548;-86
2022/09/22 11:14:40;;;;;;;3.03;2.05;;;13.70;99.90;;;;;;5062914;28;20107;-87
2022/09/22 11:17:36;;;;;;;3.20;1.80;;;13.60;99.90;;;;;;5060818;28;20035;-88
2022/09/22 11:20:13;;;;;;;4.47;2.10;;;13.70;99.90;;;;;;5059185;28;20111;-86
2022/09/22 11:23:15;;;;;;;2.47;2.08;;;13.60;99.90;;;;;;5049907;28;20032;-86
2022/09/22 11:26:06;;;;;;;2.97;2.00;;;13.60;99.90;;;;;;5042328;28;20316;-88
2022/09/22 11:28:37;;;;;;;2.53;1.95;;;13.60;99.90;;;;;;5065150;28;20033;-86
2022/09/22 11:31:03;;;;;;;3.50;2.20;;;13.70;99.90;;;;;;5061914;28;20417;-87
2022/09/22 11:33:30;;;;;;;2.88;2.10;;;13.70;99.90;;;;;;5051202;28;20472;-87
2022/09/22 11:36:24;;;;;;;2.13;1.52;;;13.60;99.90;;;;;;5057810;28;20017;-86
2022/09/22 11:39:18;;;;;;;3.72;1.88;;;13.60;99.90;;;;;;5056095;28;20029;-86
2022/09/22 11:41:59;;;;;;;4.95;1.80;;;13.60;99.90;;;;;;5053120;28;20404;-86
2022/09/22 11:44:48;;;;;;;1.77;1.48;;;13.60;99.90;;;;;;5052805;28;20028;-87
2022/09/22 11:47:56;;;;;;;2.38;1.98;;;13.60;99.90;;;;;;5047773;28;20064;-86
2022/09/22 11:50:51;;;;;;;2.55;1.95;;;13.70;99.90;;;;;;5048944;28;20418;-86
2022/09/22 11:53:37;;;;;;;3.45;2.22;;;13.60;99.90;;;;;;5046913;28;20056;-86
2022/09/22 11:56:24;;;;;;;2.08;1.67;;;13.60;99.90;;;;;;5049748;28;20029;-87
2022/09/22 11:58:54;;;;;;;1.98;1.60;;;13.60;99.90;;;;;;5071153;28;20512;-86
2022/09/22 12:01:24;;;;;;;3.03;2.15;;;13.60;99.90;;;;;;5065722;28;20032;-86
2022/09/22 12:03:56;;;;;;;2.83;2.15;;;13.70;99.90;;;;;;5061208;28;20028;-86
2022/09/22 12:06:30;;;;;;;2.65;2.20;;;13.70;99.90;;;;;;5050723;28;20584;-86
2022/09/22 12:09:24;;;;;;;2.67;1.98;;;13.70;99.90;;;;;;5072181;28;20020;-86
2022/09/22 12:11:51;;;;;;;2.73;2.00;;;13.70;99.90;;;;;;5064829;28;20048;-86
2022/09/22 12:14:17;;;;;;;3.25;2.13;;;13.70;99.90;;;;;;5049369;28;20278;-87
2022/09/22 12:16:55;;;;;;;2.75;2.00;;;13.70;99.90;;;;;;5060733;28;20393;-88
2022/09/22 12:20:14;;;;;;;3.33;2.25;;;13.70;99.90;;;;;;5069662;28;20154;-88
2022/09/22 12:23:04;;;;;;;3.08;1.73;;;13.70;99.90;;;;;;5037085;28;20086;-87
2022/09/22 12:25:53;;;;;;;2.72;2.13;;;13.70;99.90;;;;;;5062086;28;20489;-86
2022/09/22 12:28:29;;;;;;;3.40;2.05;;;13.70;99.90;;;;;;5054130;28;20480;-86
2022/09/22 12:31:14;;;;;;;3.17;1.92;;;13.70;99.90;;;;;;5054043;28;20170;-86
2022/09/22 12:33:50;;;;;;;2.80;2.28;;;13.70;99.90;;;;;;5067320;28;20481;-86
2022/09/22 12:36:27;;;;;;;2.25;1.88;;;13.70;99.90;;;;;;5064999;28;20113;-84
2022/09/22 12:39:15;;;;;;;3.97;2.58;;;13.70;99.90;;;;;;5053852;28;20020;-84
2022/09/22 12:41:47;;;;;;;3.20;1.98;;;13.70;99.90;;;;;;5065249;28;20029;-84
2022/09/22 12:44:33;;;;;;;2.83;1.70;;;13.70;99.90;;;;;;5045017;28;20115;-84
2022/09/22 12:47:17;;;;;;;2.25;1.95;;;13.70;99.90;;;;;;5062493;28;20052;-87
2022/09/22 12:49:52;;;;;;;2.55;1.98;;;13.70;99.90;;;;;;5065822;28;20035;-87
2022/09/22 12:52:40;;;;;;;4.25;2.00;;;13.70;99.90;;;;;;5058132;28;20025;-86
2022/09/22 12:55:38;;;;;;;2.42;2.10;;;13.70;99.90;;;;;;5072892;28;20056;-86
2022/09/22 12:58:24;;;;;;;3.15;2.10;;;13.70;99.90;;;;;;5044350;28;20500;-87
2022/09/22 13:00:52;;;;;;;3.75;1.92;;;13.70;99.90;;;;;;5065070;28;20020;-86
2022/09/22 13:03:24;;;;;;;2.22;1.98;;;13.70;99.90;;;;;;5066578;28;20035;-86
2022/09/22 13:05:55;;;;;;;2.50;1.73;;;13.70;99.90;;;;;;5049415;28;20029;-87
2022/09/22 13:08:45;;;;;;;2.55;2.00;;;13.70;99.90;;;;;;5062428;28;20025;-87
2022/09/22 13:11:11;;;;;;;3.25;2.15;;;13.70;99.90;;;;;;5046914;28;20043;-86
2022/09/22 13:13:42;;;;;;;2.22;2.03;;;13.70;99.90;;;;;;5045338;28;20094;-87
2022/09/22 13:16:13;;;;;;;2.25;2.05;;;13.80;99.90;;;;;;5066977;28;20032;-89
2022/09/22 13:18:44;;;;;;;2.60;2.20;;;13.80;99.90;;;;;;5067738;28;20017;-86
2022/09/22 13:21:12;;;;;;;2.45;1.90;;;13.80;99.90;;;;;;5063820;28;20445;-86
2022/09/22 13:23:53;;;;;;;2.85;2.22;;;13.80;99.90;;;;;;5042910;28;20229;-86
2022/09/22 13:26:35;;;;;;;2.63;2.10;;;13.80;99.90;;;;;;5058577;28;20025;-88
2022/09/22 13:29:02;;;;;;;4.47;2.13;;;13.80;99.90;;;;;;5052017;28;20028;-87
2022/09/22 13:31:34;;;;;;;2.30;1.85;;;13.80;99.90;;;;;;5065338;28;20504;-86
2022/09/22 13:34:35;;;;;;;2.45;2.17;;;13.80;99.90;;;;;;5068646;28;20028;-87